Time;durP1;ratioP1;P1;durP2;ratioP2;P2;SDS_P1;SDS_P2;PMS_P1;PMS_P2;Temp;Humidity;BMP_temperature;BMP_pressure;BME280_temperature;BME280_humidity;BME280_pressure;Samples;Min_cycle;Max_cycle;Signal;HPM_P1;HPM_P2
2022/06/26 00:00:55;;;;;;;;;;;;;;;16.42;100.00;101207.81;5132989;29;19917;-83
2022/06/26 00:03:26;;;;;;;;;;;;;;;16.42;100.00;101214.09;5133195;28;19992;-83
2022/06/26 00:05:56;;;;;;;;;;;;;;;16.44;100.00;101217.34;5133720;28;19914;-82
2022/06/26 00:08:27;;;;;;;;;;;;;;;16.46;100.00;101219.75;5131605;28;19961;-82
2022/06/26 00:10:57;;;;;;;;;;;;;;;16.46;100.00;101220.56;5133895;28;19964;-83
2022/06/26 00:13:27;;;;;;;;;;;;;;;16.46;100.00;101228.75;5133537;29;19945;-82
2022/06/26 00:15:58;;;;;;;;;;;;;;;16.50;100.00;101227.09;5134192;28;20210;-83
2022/06/26 00:18:28;;;;;;;;;;;;;;;16.49;100.00;101228.19;5132429;28;19918;-84
2022/06/26 00:20:58;;;;;;;;;;;;;;;16.49;100.00;101230.09;5136030;29;20001;-83
2022/06/26 00:23:28;;;;;;;;;;;;;;;16.12;100.00;101192.53;5136429;28;19938;-83
2022/06/26 00:25:59;;;;;;;;;;;;;;;16.48;100.00;101245.63;5136007;28;20435;-82
2022/06/26 00:28:29;;;;;;;;;;;;;;;16.53;100.00;101236.59;5137966;28;19934;-81
2022/06/26 00:31:01;;;;;;;;;;;;;;;16.49;100.00;101249.19;5136906;28;19969;-84
2022/06/26 00:33:31;;;;;;;;;;;;;;;16.45;100.00;101251.69;5134420;29;19997;-83
2022/06/26 00:36:01;;;;;;;;;;;;;;;16.42;100.00;101254.16;5137727;28;19961;-81
2022/06/26 00:38:31;;;;;;;;;;;;;;;16.38;100.00;101251.19;5137315;28;19915;-82
2022/06/26 00:41:02;;;;;;;;;;;;;;;16.32;100.00;101249.59;5139541;28;19918;-82
2022/06/26 00:43:32;;;;;;;;;;;;;;;16.21;100.00;101258.94;5137362;29;19914;-84
2022/06/26 00:46:04;;;;;;;;;;;;;;;16.27;100.00;101254.28;5142981;28;19910;-81
2022/06/26 00:48:34;;;;;;;;;;;;;;;16.26;100.00;101263.53;5135418;28;19914;-82
2022/06/26 00:51:05;;;;;;;;;;;;;;;16.24;100.00;101255.66;5131552;28;19916;-82
2022/06/26 00:53:35;;;;;;;;;;;;;;;16.18;100.00;101263.03;5129484;28;19921;-81
2022/06/26 00:56:06;;;;;;;;;;;;;;;16.12;100.00;101263.38;5130060;28;19922;-82
2022/06/26 00:58:36;;;;;;;;;;;;;;;16.03;100.00;101260.44;5129179;28;20001;-83
2022/06/26 01:01:07;;;;;;;;;;;;;;;15.95;100.00;101254.75;5130523;28;19914;-82
2022/06/26 01:03:37;;;;;;;;;;;;;;;15.87;100.00;101261.66;5128681;28;20001;-82
2022/06/26 01:06:07;;;;;;;;;;;;;;;15.79;100.00;101259.50;5130886;29;19911;-82
2022/06/26 01:08:38;;;;;;;;;;;;;;;15.71;100.00;101262.81;5130383;28;19961;-83
2022/06/26 01:11:17;;;;;;;;;;;;;;;15.61;100.00;101265.56;5128946;28;19925;-83
2022/06/26 01:13:48;;;;;;;;;;;;;;;15.57;100.00;101268.06;5129216;28;19911;-81
2022/06/26 01:16:19;;;;;;;;;;;;;;;15.52;100.00;101273.50;5136775;28;19914;-84
2022/06/26 01:18:51;;;;;;;;;;;;;;;15.40;100.00;101271.06;5137741;28;19937;-82
2022/06/26 01:21:22;;;;;;;;;;;;;;;15.39;100.00;101277.63;5137483;28;19917;-83
2022/06/26 01:23:53;;;;;;;;;;;;;;;15.38;100.00;101267.81;5136719;28;19944;-83
2022/06/26 01:26:23;;;;;;;;;;;;;;;15.37;100.00;101263.47;5136529;28;19911;-84
2022/06/26 01:28:53;;;;;;;;;;;;;;;15.32;100.00;101268.09;5135842;28;19938;-83
2022/06/26 01:31:24;;;;;;;;;;;;;;;15.29;100.00;101272.22;5136751;29;19910;-82
2022/06/26 01:33:54;;;;;;;;;;;;;;;15.25;100.00;101265.72;5136883;29;19910;-83
2022/06/26 01:36:25;;;;;;;;;;;;;;;15.25;100.00;101260.25;5135765;29;19915;-81
2022/06/26 01:38:55;;;;;;;;;;;;;;;15.22;100.00;101252.66;5138042;28;19953;-82
2022/06/26 01:41:25;;;;;;;;;;;;;;;15.20;100.00;101254.84;5137397;29;19917;-83
2022/06/26 01:43:56;;;;;;;;;;;;;;;15.22;100.00;101260.81;5136024;28;19910;-83
2022/06/26 01:46:26;;;;;;;;;;;;;;;15.22;100.00;101251.84;5137453;28;19957;-83
2022/06/26 01:48:56;;;;;;;;;;;;;;;15.22;100.00;101262.72;5135928;28;20056;-83
2022/06/26 01:51:27;;;;;;;;;;;;;;;15.23;100.00;101261.63;5136061;28;20057;-83
2022/06/26 01:53:57;;;;;;;;;;;;;;;15.23;100.00;101265.16;5140212;28;19910;-82
2022/06/26 01:56:27;;;;;;;;;;;;;;;15.19;100.00;101267.63;5146794;28;19898;-82
2022/06/26 01:58:57;;;;;;;;;;;;;;;15.14;100.00;101269.53;5141093;28;19914;-82
2022/06/26 02:01:28;;;;;;;;;;;;;;;15.06;100.00;101264.66;5138625;28;19910;-83
2022/06/26 02:03:58;;;;;;;;;;;;;;;15.03;100.00;101252.41;5140170;28;19914;-82
2022/06/26 02:06:28;;;;;;;;;;;;;;;15.01;100.00;101272.84;5139387;29;19915;-83
2022/06/26 02:08:59;;;;;;;;;;;;;;;14.93;100.00;101257.09;5140335;28;19938;-83
2022/06/26 02:14:18;;;;;;;;;;;;;;;14.79;100.00;101257.63;5138603;28;19944;-85
2022/06/26 02:16:48;;;;;;;;;;;;;;;14.70;100.00;101264.75;5135512;28;20281;-82
2022/06/26 02:19:18;;;;;;;;;;;;;;;14.67;100.00;101264.47;5138159;28;19949;-83
2022/06/26 02:21:49;;;;;;;;;;;;;;;14.63;100.00;101275.06;5138955;28;20388;-84
2022/06/26 02:24:19;;;;;;;;;;;;;;;14.60;100.00;101280.22;5136548;28;19919;-84
2022/06/26 02:26:49;;;;;;;;;;;;;;;13.94;100.00;101195.94;5137046;28;19942;-83
2022/06/26 02:29:19;;;;;;;;;;;;;;;14.47;100.00;101284.28;5137150;28;19918;-82
2022/06/26 02:31:50;;;;;;;;;;;;;;;14.46;100.00;101293.53;5138136;28;19911;-82
2022/06/26 02:34:20;;;;;;;;;;;;;;;14.45;100.00;101289.19;5138278;29;19910;-82
2022/06/26 02:36:50;;;;;;;;;;;;;;;14.41;100.00;101288.94;5137340;28;19917;-82
2022/06/26 02:39:20;;;;;;;;;;;;;;;14.40;100.00;101281.84;5138156;28;20009;-84
2022/06/26 02:41:51;;;;;;;;;;;;;;;14.41;100.00;101280.78;5136612;29;19910;-84
2022/06/26 02:44:21;;;;;;;;;;;;;;;14.35;100.00;101279.13;5137501;29;19918;-83
2022/06/26 02:46:51;;;;;;;;;;;;;;;14.34;100.00;101280.19;5138482;28;20008;-83
2022/06/26 02:49:22;;;;;;;;;;;;;;;14.32;100.00;101279.66;5136662;28;19911;-85
2022/06/26 02:51:52;;;;;;;;;;;;;;;14.25;100.00;101270.13;5137982;29;19914;-85
2022/06/26 02:54:22;;;;;;;;;;;;;;;14.20;100.00;101269.03;5137515;28;19977;-85
2022/06/26 02:56:53;;;;;;;;;;;;;;;14.17;100.00;101274.19;5136985;29;19910;-84
2022/06/26 02:59:23;;;;;;;;;;;;;;;14.13;100.00;101283.97;5137753;28;19920;-85
2022/06/26 03:01:53;;;;;;;;;;;;;;;14.12;100.00;101285.06;5136858;28;19911;-82
2022/06/26 03:04:24;;;;;;;;;;;;;;;14.12;100.00;101290.50;5141129;28;19946;-81
2022/06/26 03:06:54;;;;;;;;;;;;;;;14.09;100.00;101294.56;5140432;28;19914;-83
2022/06/26 03:09:24;;;;;;;;;;;;;;;14.14;100.00;101291.88;5143801;28;19942;-83
2022/06/26 03:11:55;;;;;;;;;;;;;;;14.15;100.00;101304.31;5148435;29;19910;-84
2022/06/26 03:14:26;;;;;;;;;;;;;;;14.16;100.00;101305.16;5141496;28;19922;-82
2022/06/26 03:16:57;;;;;;;;;;;;;;;14.15;100.00;101309.75;5142538;28;19917;-84
2022/06/26 03:19:27;;;;;;;;;;;;;;;14.14;100.00;101310.06;5141589;28;19938;-84
2022/06/26 03:21:58;;;;;;;;;;;;;;;14.13;100.00;101303.81;5142411;28;19910;-83
2022/06/26 03:24:28;;;;;;;;;;;;;;;14.10;100.00;101303.53;5141359;29;19914;-84
2022/06/26 03:26:59;;;;;;;;;;;;;;;14.08;100.00;101301.06;5140941;28;19941;-81
2022/06/26 03:29:29;;;;;;;;;;;;;;;14.00;100.00;101298.88;5142113;28;19910;-79
2022/06/26 03:31:59;;;;;;;;;;;;;;;14.00;100.00;101288.03;5142203;28;19996;-82
2022/06/26 03:34:30;;;;;;;;;;;;;;;13.97;100.00;101298.59;5142186;28;19918;-82
2022/06/26 03:37:00;;;;;;;;;;;;;;;13.93;100.00;101309.19;5157601;28;19925;-82
2022/06/26 03:39:30;;;;;;;;;;;;;;;13.93;100.00;101306.47;5140865;28;19922;-83
2022/06/26 03:42:01;;;;;;;;;;;;;;;13.90;100.00;101315.13;5141846;28;19910;-82
2022/06/26 03:44:31;;;;;;;;;;;;;;;13.91;100.00;101316.75;5140382;28;20067;-84
2022/06/26 03:47:01;;;;;;;;;;;;;;;13.92;100.00;101321.13;5142350;28;19910;-84
2022/06/26 03:49:32;;;;;;;;;;;;;;;13.94;100.00;101318.94;5141037;28;19910;-82
2022/06/26 03:52:03;;;;;;;;;;;;;;;13.97;100.00;101313.00;5141148;28;19996;-81
2022/06/26 03:54:34;;;;;;;;;;;;;;;13.96;100.00;101314.06;5141877;28;20373;-84
2022/06/26 03:57:05;;;;;;;;;;;;;;;14.00;100.00;101315.19;5140337;28;19911;-83
2022/06/26 03:59:36;;;;;;;;;;;;;;;14.03;100.00;101309.22;5141653;28;19915;-83
2022/06/26 04:02:07;;;;;;;;;;;;;;;14.07;100.00;101317.63;5139935;28;19922;-83
2022/06/26 04:04:37;;;;;;;;;;;;;;;14.06;100.00;101329.59;5141244;29;19910;-82
2022/06/26 04:07:07;;;;;;;;;;;;;;;14.07;100.00;101347.50;5142091;28;19910;-84
2022/06/26 04:09:37;;;;;;;;;;;;;;;14.12;100.00;101342.91;5140445;28;19914;-83
2022/06/26 04:12:08;;;;;;;;;;;;;;;14.17;100.00;101332.03;5141086;29;19910;-84
2022/06/26 04:14:38;;;;;;;;;;;;;;;14.24;100.00;101333.69;5140949;28;19937;-84
2022/06/26 04:17:09;;;;;;;;;;;;;;;14.26;100.00;101328.81;5139775;28;19918;-84
2022/06/26 04:19:39;;;;;;;;;;;;;;;14.29;100.00;101334.53;5139513;28;20311;-84
2022/06/26 04:22:09;;;;;;;;;;;;;;;14.31;100.00;101340.50;5139209;28;20239;-84
2022/06/26 04:24:40;;;;;;;;;;;;;;;14.34;100.00;101344.59;5165513;23;19968;-63
2022/06/26 04:27:10;;;;;;;;;;;;;;;14.37;100.00;101349.47;5151201;28;19914;-63
2022/06/26 04:29:40;;;;;;;;;;;;;;;14.50;100.00;101340.81;5169639;28;20391;-63
2022/06/26 04:32:11;;;;;;;;;;;;;;;14.65;100.00;101354.44;5186678;28;19910;-64
2022/06/26 04:34:41;;;;;;;;;;;;;;;14.77;100.00;101354.97;5168196;28;19932;-64
2022/06/26 04:37:11;;;;;;;;;;;;;;;14.83;100.00;101356.59;5169178;28;19916;-64
2022/06/26 04:39:42;;;;;;;;;;;;;;;14.82;100.00;101354.97;5169239;28;19937;-64
2022/06/26 04:42:12;;;;;;;;;;;;;;;15.05;100.00;101363.66;5169036;28;19949;-64
2022/06/26 04:44:42;;;;;;;;;;;;;;;15.18;100.00;101355.78;5168717;28;20043;-64
2022/06/26 04:47:13;;;;;;;;;;;;;;;15.19;100.00;101370.19;5168900;28;19910;-64
2022/06/26 04:49:43;;;;;;;;;;;;;;;15.19;100.00;101371.00;5169017;28;20369;-64
2022/06/26 04:52:14;;;;;;;;;;;;;;;15.19;100.00;101371.00;5169128;28;19916;-64
2022/06/26 04:54:44;;;;;;;;;;;;;;;15.18;100.00;101363.94;5168993;28;19909;-64
2022/06/26 04:57:15;;;;;;;;;;;;;;;15.23;100.00;101365.84;5168776;28;19910;-65
2022/06/26 04:59:45;;;;;;;;;;;;;;;15.30;100.00;101363.66;5168598;28;19918;-63
2022/06/26 05:02:15;;;;;;;;;;;;;;;15.38;100.00;101365.78;5186521;28;19940;-64
2022/06/26 05:04:45;;;;;;;;;;;;;;;15.61;100.00;101369.84;5168698;28;19960;-64
2022/06/26 05:07:16;;;;;;;;;;;;;;;15.86;100.00;101375.22;5169195;28;19916;-64
2022/06/26 05:09:46;;;;;;;;;;;;;;;15.86;100.00;101375.22;5168974;28;19909;-63
2022/06/26 05:12:16;;;;;;;;;;;;;;;15.86;100.00;101375.22;5168936;28;19956;-64
2022/06/26 05:14:47;;;;;;;;;;;;;;;15.86;100.00;101375.22;5168526;28;19944;-64
2022/06/26 05:17:17;;;;;;;;;;;;;;;15.86;100.00;101375.22;5168805;28;19909;-65
2022/06/26 05:19:47;;;;;;;;;;;;;;;15.86;100.00;101375.22;5168622;28;19921;-64
2022/06/26 05:22:19;;;;;;;;;;;;;;;15.86;100.00;101375.22;5168804;28;20329;-65
2022/06/26 05:24:50;;;;;;;;;;;;;;;15.86;100.00;101375.22;5167854;28;19959;-65
2022/06/26 05:27:20;;;;;;;;;;;;;;;15.86;100.00;101375.22;5186333;28;19909;-64
2022/06/26 05:29:51;;;;;;;;;;;;;;;15.86;100.00;101375.22;5168481;28;19909;-64
2022/06/26 05:32:21;;;;;;;;;;;;;;;15.86;100.00;101375.22;5167816;28;19910;-65
2022/06/26 05:34:51;;;;;;;;;;;;;;;15.86;100.00;101375.22;5167852;28;19932;-63
2022/06/26 05:37:21;;;;;;;;;;;;;;;15.86;100.00;101375.22;5167899;28;20385;-64
2022/06/26 05:39:52;;;;;;;;;;;;;;;15.86;100.00;101375.22;5164094;28;20019;-63
2022/06/26 05:42:22;;;;;;;;;;;;;;;15.86;100.00;101375.22;5167947;28;19955;-63
2022/06/26 05:44:52;;;;;;;;;;;;;;;15.86;100.00;101375.22;5167293;28;19916;-64
2022/06/26 05:47:23;;;;;;;;;;;;;;;15.86;100.00;101375.22;5168120;28;19913;-64
2022/06/26 05:49:53;;;;;;;;;;;;;;;15.86;100.00;101375.22;5167432;28;19909;-63
2022/06/26 05:52:23;;;;;;;;;;;;;;;15.86;100.00;101375.22;5167967;28;19910;-64
2022/06/26 05:54:54;;;;;;;;;;;;;;;15.86;100.00;101375.22;5167717;28;20278;-64
2022/06/26 05:57:25;;;;;;;;;;;;;;;15.86;100.00;101375.22;5167917;28;19910;-64
2022/06/26 05:59:55;;;;;;;;;;;;;;;15.86;100.00;101375.22;5167265;28;19975;-62
2022/06/26 06:02:25;;;;;;;;;;;;;;;15.86;100.00;101375.22;5167541;28;20004;-62
2022/06/26 06:04:56;;;;;;;;;;;;;;;15.86;100.00;101375.22;5167382;28;19913;-63
2022/06/26 06:07:26;;;;;;;;;;;;;;;15.86;100.00;101375.22;5167570;28;19963;-65
2022/06/26 06:09:57;;;;;;;;;;;;;;;15.86;100.00;101375.22;5167253;28;19909;-64
2022/06/26 06:12:27;;;;;;;;;;;;;;;15.86;100.00;101375.22;5167659;28;19932;-63
2022/06/26 06:14:58;;;;;;;;;;;;;;;15.86;100.00;101375.22;5167253;28;20308;-64
2022/06/26 06:17:37;;;;;;;;;;;;;;;15.86;100.00;101375.22;5167405;28;19905;-62
2022/06/26 06:20:12;;;;;;;;;;;;;;;15.86;100.00;101375.22;5166889;28;20008;-63
2022/06/26 06:22:54;;;;;;;;;;;;;;;15.86;100.00;101375.22;5167195;28;19999;-63
2022/06/26 06:25:25;;;;;;;;;;;;;;;15.86;100.00;101375.22;5166940;28;20393;-62
2022/06/26 06:27:55;;;;;;;;;;;;;;;15.86;100.00;101375.22;5184908;28;20008;-63
2022/06/26 06:30:26;;;;;;;;;;;;;;;15.86;100.00;101375.22;5167234;28;20274;-64
2022/06/26 06:32:56;;;;;;;;;;;;;;;15.86;100.00;101375.22;5185075;28;19966;-64
2022/06/26 06:35:26;;;;;;;;;;;;;;;15.86;100.00;101375.22;5166203;28;19925;-64
2022/06/26 06:37:57;;;;;;;;;;;;;;;15.86;100.00;101375.22;5164975;28;19909;-64
2022/06/26 06:40:29;;;;;;;;;;;;;;;15.86;100.00;101375.22;5167257;28;20381;-63
2022/06/26 06:43:00;;;;;;;;;;;;;;;15.86;100.00;101375.22;5167151;28;19932;-64
2022/06/26 06:45:30;;;;;;;;;;;;;;;15.86;100.00;101375.22;5166853;28;19909;-63
2022/06/26 06:48:01;;;;;;;;;;;;;;;15.86;100.00;101375.22;5167274;28;19917;-64
2022/06/26 06:50:31;;;;;;;;;;;;;;;15.86;100.00;101375.22;5167165;28;19909;-64
2022/06/26 06:53:02;;;;;;;;;;;;;;;15.86;100.00;101375.22;5167043;28;19916;-63
2022/06/26 06:55:32;;;;;;;;;;;;;;;15.86;100.00;101375.22;5166729;28;19917;-63
2022/06/26 06:58:03;;;;;;;;;;;;;;;15.86;100.00;101375.22;5184805;28;19917;-63
2022/06/26 07:00:34;;;;;;;;;;;;;;;15.86;100.00;101375.22;5165748;28;20296;-63
2022/06/26 07:03:05;;;;;;;;;;;;;;;15.86;100.00;101375.22;5188472;28;19909;-63
2022/06/26 07:05:35;;;;;;;;;;;;;;;15.86;100.00;101375.22;5184267;28;20377;-63
2022/06/26 07:08:06;;;;;;;;;;;;;;;15.86;100.00;101375.22;5167037;28;19920;-63
2022/06/26 07:10:36;;;;;;;;;;;;;;;15.86;100.00;101375.22;5166745;28;20157;-63
2022/06/26 07:13:10;;;;;;;;;;;;;;;15.86;100.00;101375.22;5166426;28;19964;-63
2022/06/26 07:15:43;;;;;;;;;;;;;;;15.86;100.00;101375.22;5166716;28;20365;-63
2022/06/26 07:18:14;;;;;;;;;;;;;;;15.86;100.00;101375.22;5166687;28;19909;-63
2022/06/26 07:20:44;;;;;;;;;;;;;;;15.86;100.00;101375.22;5166409;28;19917;-63
2022/06/26 07:23:14;;;;;;;;;;;;;;;15.86;100.00;101375.22;5145850;28;20203;-64
2022/06/26 07:25:45;;;;;;;;;;;;;;;15.86;100.00;101375.22;5146086;28;20401;-64
2022/06/26 07:28:16;;;;;;;;;;;;;;;15.86;100.00;101375.22;5146521;28;20013;-64
2022/06/26 07:30:46;;;;;;;;;;;;;;;15.86;100.00;101375.22;5147042;28;19910;-63
2022/06/26 07:36:06;;;;;;;;;;;;;;;15.86;100.00;101375.22;5163432;28;20449;-64
2022/06/26 07:38:37;;;;;;;;;;;;;;;15.86;100.00;101375.22;5146254;28;19913;-64
2022/06/26 07:41:07;;;;;;;;;;;;;;;15.86;100.00;101375.22;5146413;28;20297;-64
2022/06/26 07:43:38;;;;;;;;;;;;;;;15.86;100.00;101375.22;5145915;28;19909;-64
2022/06/26 07:46:08;;;;;;;;;;;;;;;15.86;100.00;101375.22;5146384;28;19910;-63
2022/06/26 07:48:39;;;;;;;;;;;;;;;15.86;100.00;101375.22;5147620;28;19914;-63
2022/06/26 07:51:10;;;;;;;;;;;;;;;15.86;100.00;101375.22;5167362;28;20016;-63
2022/06/26 07:53:41;;;;;;;;;;;;;;;15.86;100.00;101375.22;5149604;28;19914;-62
2022/06/26 07:57:02;;;;;;;;;;;;;;;-141.48;100.00;69781.59;5149611;28;19949;-63
2022/06/26 07:59:33;;;;;;;;;;;;;;;15.86;100.00;101375.22;5149687;28;19914;-62
2022/06/26 08:02:04;;;;;;;;;;;;;;;15.86;100.00;101375.22;5152688;28;19976;-63
2022/06/26 08:04:36;;;;;;;;;;;;;;;15.86;100.00;101375.22;5169047;28;19916;-65
2022/06/26 08:08:05;;;;;;;;;;;;;;;-141.48;100.00;69781.59;5187472;28;19914;-63
2022/06/26 08:11:34;;;;;;;;;;;;;;;-141.48;100.00;69781.59;5169650;28;19909;-63
2022/06/26 08:15:03;;;;;;;;;;;;;;;-141.48;100.00;69781.59;5164863;28;20362;-62
2022/06/26 08:18:32;;;;;;;;;;;;;;;-141.48;100.00;69781.59;5165443;28;20293;-63
2022/06/26 08:22:01;;;;;;;;;;;;;;;-141.48;100.00;69781.59;5166862;28;20224;-63
2022/06/26 08:25:30;;;;;;;;;;;;;;;-141.48;100.00;69781.59;5165151;28;19956;-63
2022/06/26 08:28:59;;;;;;;;;;;;;;;-141.48;100.00;69781.59;5165102;28;19909;-64
2022/06/26 08:32:28;;;;;;;;;;;;;;;-141.48;100.00;69781.59;5166510;28;20289;-64
2022/06/26 08:35:56;;;;;;;;;;;;;;;-141.48;100.00;69781.59;5166000;28;20285;-64
2022/06/26 08:39:26;;;;;;;;;;;;;;;-141.48;100.00;69781.59;5164897;28;20366;-64
2022/06/26 08:42:55;;;;;;;;;;;;;;;-141.48;100.00;69781.59;5165000;28;19920;-63
2022/06/26 08:46:26;;;;;;;;;;;;;;;-141.48;100.00;69781.59;5164689;28;20288;-64
2022/06/26 08:49:55;;;;;;;;;;;;;;;-141.48;100.00;69781.59;5164744;28;20274;-63
2022/06/26 08:53:24;;;;;;;;;;;;;;;-141.48;100.00;69781.59;5166210;28;19917;-64
2022/06/26 08:56:53;;;;;;;;;;;;;;;-141.48;100.00;69781.59;5163406;28;19926;-63
2022/06/26 09:00:22;;;;;;;;;;;;;;;-141.48;100.00;69781.59;5164509;28;20373;-64
2022/06/26 09:03:51;;;;;;;;;;;;;;;-141.48;100.00;69781.59;5163583;28;19910;-64
2022/06/26 09:07:20;;;;;;;;;;;;;;;-141.48;100.00;69781.59;5164679;28;19917;-64
2022/06/26 09:10:49;;;;;;;;;;;;;;;-141.48;100.00;69781.59;5164075;28;19984;-63
2022/06/26 09:14:18;;;;;;;;;;;;;;;-141.48;100.00;69781.59;5164225;28;19910;-64
2022/06/26 09:18:01;;;;;;;;;;;;;;;-141.48;100.00;69781.59;5164254;28;19910;-63
2022/06/26 09:21:30;;;;;;;;;;;;;;;-141.48;100.00;69781.59;5165432;28;19917;-63
2022/06/26 09:25:00;;;;;;;;;;;;;;;-141.48;100.00;69781.59;5182048;28;19916;-63
2022/06/26 09:28:21;;;;;;;;;;;;;;;-141.48;100.00;69781.59;5188588;28;19920;-64
2022/06/26 09:30:52;;;;;;;;;;;;;;;21.72;100.00;101563.47;5187813;28;19916;-64
2022/06/26 09:33:23;;;;;;;;;;;;;;;21.68;100.00;101563.28;5187801;28;19909;-64
2022/06/26 09:35:54;;;;;;;;;;;;;;;21.72;100.00;101566.22;5188085;28;20004;-64
2022/06/26 09:38:29;;;;;;;;;;;;;;;21.87;100.00;101563.09;5187853;28;19996;-64
2022/06/26 09:41:01;;;;;;;;;;;;;;;22.08;100.00;101566.97;5187654;28;20012;-65
2022/06/26 09:43:32;;;;;;;;;;;;;;;21.98;100.00;101574.63;5188056;28;19909;-64
2022/06/26 09:46:07;;;;;;;;;;;;;;;22.15;100.00;101578.34;5187620;28;19909;-64
2022/06/26 09:48:38;;;;;;;;;;;;;;;22.50;100.00;101573.78;5188005;28;19964;-63
2022/06/26 09:51:10;;;;;;;;;;;;;;;22.74;100.00;101567.03;5187511;28;20384;-62
2022/06/26 09:53:40;;;;;;;;;;;;;;;22.88;100.00;101571.28;5187290;28;19909;-64
2022/06/26 09:56:11;;;;;;;;;;;;;;;23.10;100.00;101575.84;5187558;28;20290;-63
2022/06/26 09:58:41;;;;;;;;;;;;;;;23.15;100.00;101572.13;5187815;28;19909;-63
2022/06/26 10:06:50;;;;;;;;;;;;;;;23.06;100.00;101577.66;5205810;28;19909;-62
2022/06/26 10:09:21;;;;;;;;;;;;;;;23.52;100.00;101577.00;5187750;28;19909;-64
2022/06/26 10:11:53;;;;;;;;;;;;;;;23.41;100.00;101575.69;5186712;28;19916;-63
2022/06/26 10:14:39;;;;;;;;;;;;;;;23.41;100.00;101575.69;5187138;28;20007;-64
2022/06/26 10:17:15;;;;;;;;;;;;;;;23.49;100.00;101583.16;5187679;28;19909;-64
2022/06/26 10:19:50;;;;;;;;;;;;;;;23.47;100.00;101571.63;5187584;28;20341;-64
2022/06/26 10:22:20;;;;;;;;;;;;;;;23.14;100.00;101581.53;5187563;28;19909;-65
2022/06/26 10:24:52;;;;;;;;;;;;;;;23.09;100.00;101582.50;5187157;28;20438;-63
2022/06/26 10:27:28;;;;;;;;;;;;;;;23.33;100.00;101575.72;5187451;28;19909;-64
2022/06/26 10:30:15;;;;;;;;;;;;;;;23.61;100.00;101576.19;5186534;28;19909;-64
2022/06/26 10:32:45;;;;;;;;;;;;;;;23.75;100.00;101576.81;5187590;28;20361;-64
2022/06/26 10:35:16;;;;;;;;;;;;;;;23.93;100.00;101572.09;5186514;28;19909;-64
2022/06/26 10:37:48;;;;;;;;;;;;;;;23.93;100.00;101572.09;5187560;28;19909;-63
2022/06/26 10:43:11;;;;;;;;;;;;;;;24.33;100.00;101581.69;5205284;28;19963;-64
2022/06/26 10:45:42;;;;;;;;;;;;;;;24.37;100.00;101568.84;5186338;28;19913;-63
2022/06/26 10:48:19;;;;;;;;;;;;;;;24.61;100.00;101571.00;5187229;28;19958;-63
2022/06/26 10:50:56;;;;;;;;;;;;;;;24.66;100.00;101561.72;5187081;28;19975;-63
2022/06/26 10:53:32;;;;;;;;;;;;;;;24.52;100.00;101565.53;5186659;28;20058;-64
2022/06/26 10:56:03;;;;;;;;;;;;;;;24.20;100.00;101558.66;5186848;28;19959;-64
2022/06/26 10:58:35;;;;;;;;;;;;;;;24.01;100.00;101563.75;5186905;28;19909;-63
2022/06/26 11:01:07;;;;;;;;;;;;;;;24.07;100.00;101565.19;5177576;28;19921;-64
2022/06/26 11:03:38;;;;;;;;;;;;;;;24.27;100.00;101552.66;5184497;28;19919;-64
2022/06/26 11:06:09;;;;;;;;;;;;;;;24.39;100.00;101555.53;5166586;28;19909;-63
2022/06/26 11:08:47;;;;;;;;;;;;;;;24.66;100.00;101558.94;5166392;28;20441;-63
2022/06/26 11:11:20;;;;;;;;;;;;;;;25.02;100.00;101563.94;5166573;28;19916;-63
2022/06/26 11:13:52;;;;;;;;;;;;;;;25.28;100.00;101553.47;5166564;28;19988;-63
2022/06/26 11:16:35;;;;;;;;;;;;;;;25.27;100.00;101545.53;5166664;28;20362;-63
2022/06/26 11:19:06;;;;;;;;;;;;;;;25.37;100.00;101543.16;5166433;28;20356;-63
2022/06/26 11:21:36;;;;;;;;;;;;;;;25.61;100.00;101533.31;5166508;28;20131;-63
2022/06/26 11:24:07;;;;;;;;;;;;;;;25.90;100.00;101539.53;5168207;28;19955;-62
2022/06/26 11:26:37;;;;;;;;;;;;;;;25.47;96.59;101534.41;5170409;28;19941;-62
2022/06/26 11:29:08;;;;;;;;;;;;;;;25.08;100.00;101537.72;5170416;28;19996;-63
2022/06/26 11:31:46;;;;;;;;;;;;;;;24.96;100.00;101534.88;5169863;28;20317;-63
2022/06/26 11:34:17;;;;;;;;;;;;;;;24.62;100.00;101547.75;5170075;28;20326;-65
2022/06/26 11:36:51;;;;;;;;;;;;;;;24.37;100.00;101545.94;5181000;23;19921;-61
2022/06/26 11:39:24;;;;;;;;;;;;;;;24.44;100.00;101547.06;5185880;28;19968;-61
2022/06/26 11:41:54;;;;;;;;;;;;;;;24.85;100.00;101551.00;5186447;28;20024;-61
2022/06/26 11:44:24;;;;;;;;;;;;;;;25.63;100.00;101556.75;5185850;28;20003;-60
2022/06/26 11:46:55;;;;;;;;;;;;;;;26.05;100.00;101542.78;5186298;28;20288;-61
2022/06/26 11:49:25;;;;;;;;;;;;;;;26.19;100.00;101549.59;5187548;28;19909;-60
2022/06/26 11:51:58;;;;;;;;;;;;;;;26.56;100.00;101533.78;5186087;28;20381;-59
2022/06/26 11:54:29;;;;;;;;;;;;;;;27.02;97.45;101528.88;5185853;28;19963;-60
2022/06/26 11:57:04;;;;;;;;;;;;;;;27.38;94.51;101536.28;5185628;28;20293;-61
2022/06/26 11:59:40;;;;;;;;;;;;;;;26.99;88.40;101542.66;5185926;28;20416;-61
2022/06/26 12:02:20;;;;;;;;;;;;;;;26.26;87.20;101537.97;5148190;28;20259;-62
2022/06/26 12:04:57;;;;;;;;;;;;;;;25.78;93.39;101527.63;5145480;28;19914;-62
2022/06/26 12:07:38;;;;;;;;;;;;;;;25.57;94.60;101528.47;5166867;28;19909;-60
2022/06/26 12:10:09;;;;;;;;;;;;;;;25.58;93.82;101521.78;5185593;28;19915;-64
2022/06/26 12:12:49;;;;;;;;;;;;;;;25.55;95.71;101524.44;5185468;28;19913;-60
2022/06/26 12:15:20;;;;;;;;;;;;;;;25.52;98.26;101525.09;5184182;28;19909;-61
2022/06/26 12:17:55;;;;;;;;;;;;;;;25.41;89.78;101518.41;5186678;28;19917;-65
2022/06/26 12:20:26;;;;;;;;;;;;;;;25.03;90.82;101524.91;5185095;28;20000;-61
2022/06/26 12:22:56;;;;;;;;;;;;;;;25.42;96.77;101537.41;5185762;28;19987;-61
2022/06/26 12:25:28;;;;;;;;;;;;;;;25.74;84.32;101524.72;5185626;28;19909;-61
2022/06/26 12:27:59;;;;;;;;;;;;;;;25.78;88.84;101519.31;5185361;28;19914;-61
2022/06/26 12:30:38;;;;;;;;;;;;;;;26.03;83.86;101526.50;5186128;28;19996;-60
2022/06/26 12:33:09;;;;;;;;;;;;;;;26.27;89.97;101533.22;5172406;28;20046;-61
2022/06/26 12:35:40;;;;;;;;;;;;;;;26.57;88.60;101524.31;5157238;28;20396;-60
2022/06/26 12:38:10;;;;;;;;;;;;;;;26.67;85.46;101525.00;5186832;28;19968;-62
2022/06/26 12:40:41;;;;;;;;;;;;;;;26.57;87.76;101515.22;5184534;28;19917;-62
2022/06/26 12:43:11;;;;;;;;;;;;;;;26.27;82.35;101511.06;5184612;28;19911;-60
2022/06/26 12:45:41;;;;;;;;;;;;;;;26.32;89.32;101514.44;5184408;28;19909;-61
2022/06/26 12:48:12;;;;;;;;;;;;;;;26.46;88.67;101520.44;5184628;28;19910;-61
2022/06/26 12:50:42;;;;;;;;;;;;;;;26.81;87.95;101531.00;5184733;28;20118;-61
2022/06/26 12:53:12;;;;;;;;;;;;;;;27.00;79.74;101530.41;5184232;28;19945;-62
2022/06/26 12:55:43;;;;;;;;;;;;;;;27.07;82.49;101534.19;5184368;28;19910;-61
2022/06/26 12:58:13;;;;;;;;;;;;;;;27.10;76.44;101533.50;5184812;28;19971;-61
2022/06/26 13:00:43;;;;;;;;;;;;;;;27.13;75.46;101538.34;5184619;28;20007;-62
2022/06/26 13:03:14;;;;;;;;;;;;;;;26.95;78.35;101534.22;5184723;28;20389;-61
2022/06/26 13:05:44;;;;;;;;;;;;;;;27.07;80.23;101534.19;5184597;28;20004;-62
2022/06/26 13:08:14;;;;;;;;;;;;;;;27.17;82.03;101530.91;5173099;28;19961;-62
2022/06/26 13:10:45;;;;;;;;;;;;;;;27.34;80.44;101532.59;5152008;28;19910;-61
2022/06/26 13:13:15;;;;;;;;;;;;;;;27.17;82.05;101524.56;5144313;28;19917;-62
2022/06/26 13:15:45;;;;;;;;;;;;;;;26.29;81.52;101536.44;5146987;28;20141;-62
2022/06/26 13:18:16;;;;;;;;;;;;;;;25.79;87.33;101527.28;5154387;28;19960;-61
2022/06/26 13:20:46;;;;;;;;;;;;;;;25.67;90.85;101523.69;5145504;28;19918;-61
2022/06/26 13:23:16;;;;;;;;;;;;;;;25.09;90.60;101445.38;5144931;28;19914;-62
2022/06/26 13:45:15;;;;;;;;;;;;;;;27.02;85.89;101536.41;5147306;28;19926;-83